Time;durP1;ratioP1;P1;durP2;ratioP2;P2;SDS_P1;SDS_P2;PMS_P1;PMS_P2;Temp;Humidity;BMP_temperature;BMP_pressure;BME280_temperature;BME280_humidity;BME280_pressure;Samples;Min_cycle;Max_cycle;Signal;HPM_P1;HPM_P2
2022/06/06 00:00:46;;;;;;;;;10.00;10.00;;;;;19.35;61.97;101131.84;4996607;28;45420;-53
2022/06/06 00:03:13;;;;;;;;;9.20;8.20;;;;;19.19;61.81;101105.81;4996377;28;45263;-51
2022/06/06 00:05:45;;;;;;;;;10.00;9.00;;;;;19.28;62.02;101134.00;4996518;28;45369;-52
2022/06/06 00:08:14;;;;;;;;;11.80;10.80;;;;;19.15;62.68;101118.56;4996226;28;46731;-52
2022/06/06 00:10:43;;;;;;;;;8.60;8.60;;;;;19.04;62.08;101104.53;4996193;28;45407;-50
2022/06/06 00:13:09;;;;;;;;;5.80;5.20;;;;;19.19;61.19;101125.28;4996664;28;45331;-54
2022/06/06 00:15:35;;;;;;;;;10.00;7.60;;;;;19.10;61.52;101113.78;4994924;28;45396;-52
2022/06/06 00:18:01;;;;;;;;;5.25;5.25;;;;;19.14;61.51;101134.41;5011596;28;45849;-53
2022/06/06 00:20:27;;;;;;;;;11.00;10.20;;;;;18.88;61.83;101111.00;4995952;28;45421;-51
2022/06/06 00:22:52;;;;;;;;;6.50;5.00;;;;;19.02;61.22;101134.56;4970402;28;46007;-55
2022/06/06 00:25:18;;;;;;;;;4.25;4.25;;;;;18.90;61.54;101114.34;4971673;28;45312;-57
2022/06/06 00:27:43;;;;;;;;;9.00;6.25;;;;;19.02;61.10;101131.78;4973553;28;45868;-55
2022/06/06 00:30:09;;;;;;;;;8.00;8.00;;;;;18.58;61.06;101051.97;4975320;28;45370;-54
2022/06/06 00:35:20;;;;;;;;;6.80;5.00;;;;;18.80;60.83;101096.44;4983499;28;45398;-52
2022/06/06 00:37:46;;;;;;;;;5.80;5.80;;;;;18.77;61.37;101091.41;4994608;28;45573;-54
2022/06/06 00:40:11;;;;;;;;;7.75;6.75;;;;;18.88;61.30;101105.44;4995855;28;45409;-54
2022/06/06 00:42:42;;;;;;;;;7.50;6.75;;;;;18.83;61.31;101109.81;4995539;28;45391;-51
2022/06/06 00:45:23;;;;;;;;;6.60;6.60;;;;;18.86;61.48;101114.03;5026956;28;45962;-56
2022/06/06 00:48:21;;;;;;;;;7.60;5.60;;;;;18.90;61.68;101103.22;4995565;28;46669;-53
2022/06/06 00:51:18;;;;;;;;;8.20;5.60;;;;;18.92;61.25;101112.16;4995380;28;45255;-51
2022/06/06 00:53:51;;;;;;;;;5.60;5.60;;;;;18.87;61.60;101099.03;4972740;28;45413;-52
2022/06/06 00:56:19;;;;;;;;;5.40;5.40;;;;;18.67;61.69;101075.44;5027422;28;45378;-54
2022/06/06 00:58:46;;;;;;;;;8.00;7.00;;;;;18.85;61.86;101101.22;4995697;28;45819;-55
2022/06/06 01:01:11;;;;;;;;;7.00;7.00;;;;;18.83;61.82;101101.47;5012751;28;45468;-54
2022/06/06 01:03:38;;;;;;;;;8.50;8.50;;;;;18.90;61.83;101108.78;5031261;28;45471;-53
2022/06/06 01:06:05;;;;;;;;;8.00;8.00;;;;;18.91;61.68;101111.31;4998945;28;45528;-54
2022/06/06 01:08:31;;;;;;;;;7.60;7.40;;;;;18.80;62.33;101101.16;5013948;28;46851;-53
2022/06/06 01:10:56;;;;;;;;;8.00;8.00;;;;;18.81;62.50;101098.13;4997571;28;45293;-51
2022/06/06 01:13:24;;;;;;;;;6.75;6.75;;;;;18.84;62.48;101102.34;4998986;28;45330;-52
2022/06/06 01:16:19;;;;;;;;;10.20;7.20;;;;;18.82;62.48;101099.81;4997756;28;45489;-53
2022/06/06 01:19:14;;;;;;;;;11.20;8.80;;;;;18.74;62.79;101086.38;4982484;28;46703;-54
2022/06/06 01:21:51;;;;;;;;;8.00;8.00;;;;;18.77;62.99;101105.28;5000669;28;45616;-52
2022/06/06 01:24:41;;;;;;;;;7.40;6.60;;;;;18.56;62.94;101074.47;5030676;28;45482;-49
2022/06/06 01:27:25;;;;;;;;;10.60;10.20;;;;;18.56;63.04;101065.28;5030888;28;45450;-54
2022/06/06 01:29:53;;;;;;;;;11.80;10.80;;;;;18.51;63.32;101060.50;5028985;28;45709;-50
2022/06/06 01:32:19;;;;;;;;;9.80;9.00;;;;;18.69;63.48;101091.84;4997176;28;45422;-52
2022/06/06 01:34:48;;;;;;;;;10.25;10.25;;;;;18.69;63.36;101086.28;4983394;28;45477;-54
2022/06/06 01:37:33;;;;;;;;;11.80;11.40;;;;;18.72;63.09;101096.88;4989541;28;45615;-55
2022/06/06 01:40:00;;;;;;;;;12.60;11.60;;;;;18.47;63.33;101056.53;4996886;28;45891;-52
2022/06/06 01:42:54;;;;;;;;;10.20;10.20;;;;;18.54;63.32;101090.56;5030277;28;45386;-53
2022/06/06 01:45:45;;;;;;;;;7.60;7.40;;;;;18.40;63.36;101078.13;4991824;28;45392;-51
2022/06/06 01:48:35;;;;;;;;;7.20;7.20;;;;;18.24;62.29;101061.25;5030929;28;45451;-56
2022/06/06 01:51:16;;;;;;;;;8.80;5.80;;;;;18.30;62.68;101087.16;5016057;28;46269;-55
2022/06/06 01:53:42;;;;;;;;;8.40;7.40;;;;;18.24;62.18;101089.03;5013867;28;45412;-54
2022/06/06 01:56:09;;;;;;;;;5.75;5.75;;;;;18.19;61.82;101074.22;5013678;28;45253;-52
2022/06/06 01:58:35;;;;;;;;;4.20;4.20;;;;;18.18;62.13;101081.69;4997671;28;45406;-50
2022/06/06 02:01:02;;;;;;;;;9.25;5.75;;;;;18.27;62.02;101082.97;4980790;28;46160;-52
2022/06/06 02:03:28;;;;;;;;;6.00;6.00;;;;;18.09;61.46;101070.19;4998104;28;45212;-52
2022/06/06 02:05:54;;;;;;;;;6.75;6.75;;;;;18.15;62.22;101068.34;4998629;28;45222;-50
2022/06/06 02:08:19;;;;;;;;;4.50;4.50;;;;;18.19;61.72;101077.81;4998626;28;45226;-52
2022/06/06 02:10:45;;;;;;;;;7.25;5.00;;;;;18.10;61.42;101060.75;5029861;28;45603;-53
2022/06/06 02:13:10;;;;;;;;;7.00;6.00;;;;;18.25;61.48;101079.59;5029046;28;45352;-50
2022/06/06 02:15:36;;;;;;;;;6.75;5.50;;;;;18.27;61.01;101087.66;4998202;28;45377;-52
2022/06/06 02:18:02;;;;;;;;;5.50;5.00;;;;;18.13;60.99;101065.81;4998292;28;45298;-51
2022/06/06 02:20:28;;;;;;;;;3.75;3.75;;;;;18.16;60.88;101070.00;4996564;28;46573;-52
2022/06/06 02:22:54;;;;;;;;;4.20;4.20;;;;;18.26;60.71;101080.44;5030169;28;45439;-54
2022/06/06 02:25:19;;;;;;;;;4.25;4.25;;;;;18.26;60.16;101086.81;4998611;28;45413;-59
2022/06/06 02:27:45;;;;;;;;;5.75;4.75;;;;;18.08;60.46;101045.47;4998240;28;45369;-54
2022/06/06 02:30:16;;;;;;;;;6.25;4.00;;;;;18.14;60.45;101061.06;5029842;28;45305;-51
2022/06/06 02:32:42;;;;;;;;;7.80;6.60;;;;;18.19;60.46;101077.81;4996432;28;45395;-55
2022/06/06 02:35:13;;;;;;;;;5.00;4.00;;;;;18.19;60.88;101077.81;4997333;28;45362;-56
2022/06/06 02:37:39;;;;;;;;;6.20;5.00;;;;;18.04;60.42;101066.47;4977958;28;45454;-51
2022/06/06 02:40:06;;;;;;;;;5.50;5.00;;;;;17.79;61.10;101079.69;4978203;28;46514;-54
2022/06/06 02:42:31;;;;;;;;;4.20;4.20;;;;;17.80;61.21;101083.28;4976780;28;45496;-51
2022/06/06 02:44:57;;;;;;;;;5.75;5.75;;;;;17.75;61.32;101072.97;4978169;28;45487;-51
2022/06/06 02:47:22;;;;;;;;;5.75;5.00;;;;;17.80;61.55;101080.53;4978416;28;45356;-55
2022/06/06 02:49:48;;;;;;;;;6.00;5.00;;;;;17.78;61.80;101079.94;4977787;28;45682;-52
2022/06/06 02:52:13;;;;;;;;;4.00;4.00;;;;;17.79;61.46;101073.28;4978058;28;45296;-50
2022/06/06 02:54:39;;;;;;;;;6.00;5.00;;;;;17.87;61.17;101086.75;4978157;28;45390;-52
2022/06/06 02:57:05;;;;;;;;;6.00;6.00;;;;;17.68;61.03;101042.59;4977899;28;45601;-52
2022/06/06 02:59:32;;;;;;;;;6.20;5.00;;;;;17.71;61.07;101039.31;4977906;28;46026;-56
2022/06/06 03:01:57;;;;;;;;;5.00;5.00;;;;;17.86;61.14;101066.47;4977666;28;45317;-56
2022/06/06 03:04:22;;;;;;;;;5.00;5.00;;;;;17.85;60.98;101063.94;4976709;28;45381;-51
2022/06/06 03:06:55;;;;;;;;;4.25;4.00;;;;;17.88;61.21;101071.78;4976529;28;45313;-52
2022/06/06 03:09:41;;;;;;;;;6.40;6.40;;;;;17.73;60.82;101067.66;4977638;28;45916;-53
2022/06/06 03:12:29;;;;;;;;;5.00;5.00;;;;;17.51;61.03;101059.25;4960436;28;45266;-51
2022/06/06 03:15:12;;;;;;;;;5.00;5.00;;;;;17.48;61.46;101080.03;4961348;28;46052;-54
2022/06/06 03:20:46;;;;;;;;;6.60;5.00;;;;;17.52;61.46;101085.91;4977486;28;45340;-52
2022/06/06 03:23:39;;;;;;;;;5.00;5.00;;;;;17.54;61.39;101080.94;4950482;28;45412;-51
2022/06/06 03:26:11;;;;;;;;;4.20;4.20;;;;;17.63;60.89;101077.75;4960025;28;45359;-55
2022/06/06 03:29:01;;;;;;;;;9.40;6.20;;;;;17.60;61.46;101087.41;4975939;28;45371;-50
2022/06/06 03:31:48;;;;;;;;;6.40;6.00;;;;;17.57;61.06;101088.75;4975874;28;45531;-54
2022/06/06 03:34:19;;;;;;;;;5.60;5.60;;;;;17.54;61.63;101100.38;4976358;28;45476;-49
2022/06/06 03:36:57;;;;;;;;;3.80;3.80;;;;;17.38;61.58;101082.59;4988361;28;45396;-50
2022/06/06 03:40:00;;;;;;;;;5.00;5.00;;;;;17.38;61.55;101090.91;5027500;28;45417;-52
2022/06/06 03:42:34;;;;;;;;;5.40;3.40;;;;;17.33;61.94;101090.81;5028712;28;45457;-53
2022/06/06 03:45:25;;;;;;;;;6.00;4.00;;;;;17.30;61.72;101086.59;5016451;28;45531;-54
2022/06/06 03:48:18;;;;;;;;;3.60;3.60;;;;;17.40;61.44;101094.28;4975915;28;45445;-50
2022/06/06 03:51:14;;;;;;;;;4.00;4.00;;;;;17.26;61.93;101092.91;4957855;28;45370;-53
2022/06/06 03:54:15;;;;;;;;;4.40;4.40;;;;;17.30;61.74;101094.09;4956539;28;48147;-53
2022/06/06 03:56:56;;;;;;;;;5.00;5.00;;;;;17.35;61.22;101096.97;4957645;28;45497;-51
2022/06/06 03:59:21;;;;;;;;;2.00;2.00;;;;;17.12;61.73;101089.63;4957729;28;45391;-54
2022/06/06 04:01:46;;;;;;;;;2.75;2.75;;;;;17.26;61.87;101098.47;4956560;28;45277;-56
2022/06/06 04:04:12;;;;;;;;;5.00;4.00;;;;;17.33;61.42;101101.91;4956025;28;46104;-51
2022/06/06 04:06:37;;;;;;;;;4.25;4.25;;;;;17.38;61.03;101103.94;4940284;28;45338;-49
2022/06/06 04:09:03;;;;;;;;;4.25;4.25;;;;;17.44;61.01;101109.34;4957218;28;45772;-53
2022/06/06 04:11:28;;;;;;;;;5.00;5.00;;;;;17.46;61.03;101112.69;4972568;28;45387;-51
2022/06/06 04:14:03;;;;;;;;;4.75;3.50;;;;;17.55;60.66;101118.69;4957254;28;46797;-51
2022/06/06 04:16:47;;;;;;;;;3.00;3.00;;;;;17.57;60.45;101110.94;4957178;28;45182;-51
2022/06/06 04:19:24;;;;;;;;;3.80;3.80;;;;;17.53;60.17;101115.34;4957480;28;45340;-53
2022/06/06 04:22:01;;;;;;;;;3.40;3.40;;;;;17.51;60.32;101119.44;4957283;28;45372;-53
2022/06/06 04:24:44;;;;;;;;;6.00;4.80;;;;;17.56;60.58;101119.53;4956860;28;45979;-54
2022/06/06 04:27:22;;;;;;;;;2.00;2.00;;;;;17.27;60.25;101089.03;4956020;28;45403;-54
2022/06/06 04:29:58;;;;;;;;;3.60;3.60;;;;;17.54;60.16;101116.16;4957365;28;45339;-54
2022/06/06 04:32:35;;;;;;;;;4.40;4.20;;;;;17.28;59.86;101087.97;4956434;28;45400;-54
2022/06/06 04:35:08;;;;;;;;;4.80;4.80;;;;;17.16;59.69;101077.78;4956295;28;46084;-57
2022/06/06 04:37:39;;;;;;;;;3.00;3.00;;;;;17.29;59.91;101111.84;4975209;28;45381;-54
2022/06/06 04:40:35;;;;;;;;;3.00;3.00;;;;;17.29;59.84;101107.13;5011411;28;45379;-55
2022/06/06 04:43:26;;;;;;;;;3.20;3.20;;;;;17.21;59.37;101085.34;5027182;28;45425;-50
2022/06/06 04:46:04;;;;;;;;;1.00;1.00;;;;;17.38;59.15;101112.25;4987714;28;46290;-51
2022/06/06 04:48:29;;;;;;;;;2.00;2.00;;;;;17.26;59.32;101092.91;4989118;28;45386;-52
2022/06/06 04:50:55;;;;;;;;;2.00;2.00;;;;;17.33;58.50;101099.13;4978711;28;45398;-53
2022/06/06 04:53:21;;;;;;;;;1.00;1.00;;;;;17.14;59.15;101102.13;4996014;28;45440;-54
2022/06/06 04:55:48;;;;;;;;;2.80;2.60;;;;;17.18;59.27;101103.31;5010757;28;46793;-53
2022/06/06 04:58:13;;;;;;;;;2.60;2.00;;;;;17.23;59.35;101110.06;5011124;28;45409;-54
2022/06/06 05:00:40;;;;;;;;;1.00;1.00;;;;;17.18;59.57;101106.09;4995933;28;45352;-54
2022/06/06 05:03:06;;;;;;;;;2.40;2.40;;;;;17.28;59.15;101115.72;4996088;28;45593;-55
2022/06/06 05:05:35;;;;;;;;;1.00;1.00;;;;;17.23;58.49;101096.19;4995795;28;46444;-52
2022/06/06 05:08:24;;;;;;;;;2.00;1.00;;;;;17.36;58.27;101108.91;5027490;28;45456;-51
2022/06/06 05:11:12;;;;;;;;;1.00;1.00;;;;;17.26;58.49;101106.78;4995489;28;45316;-56
2022/06/06 05:13:49;;;;;;;;;2.20;1.00;;;;;17.16;58.17;101088.88;5009737;28;45395;-53
2022/06/06 05:16:18;;;;;;;;;1.20;1.20;;;;;17.06;57.87;101083.09;4995757;28;45556;-51
2022/06/06 05:19:00;;;;;;;;;0.40;0.40;;;;;17.16;58.26;101115.75;4995418;28;45295;-50
2022/06/06 05:21:45;;;;;;;;;0.60;0.60;;;;;16.96;58.33;101080.94;4995760;28;45260;-53
2022/06/06 05:24:22;;;;;;;;;2.20;1.00;;;;;16.91;58.42;101098.31;5027851;28;45423;-56
2022/06/06 05:27:45;;;;;;;;;1.40;1.00;;;;;16.90;58.84;101124.38;4995421;28;46388;-55
2022/06/06 05:30:18;;;;;;;;;2.20;0.00;;;;;16.98;58.43;101119.53;4954218;28;45457;-52
2022/06/06 05:32:50;;;;;;;;;1.00;1.00;;;;;16.83;58.83;101090.41;4938140;28;45494;-56
2022/06/06 05:35:40;;;;;;;;;1.20;1.00;;;;;17.15;58.69;101131.56;4975575;28;45657;-52
2022/06/06 05:38:34;;;;;;;;;0.80;0.60;;;;;17.20;58.62;101125.25;4955740;28;46529;-53
2022/06/06 05:41:18;;;;;;;;;1.00;1.00;;;;;17.04;58.52;101096.38;4955772;28;45308;-50
2022/06/06 05:43:51;;;;;;;;;2.20;1.00;;;;;17.20;57.85;101126.09;4955911;28;45394;-53
2022/06/06 05:46:38;;;;;;;;;1.00;1.00;;;;;17.05;58.58;101132.19;4940497;28;45383;-55
2022/06/06 05:49:12;;;;;;;;;0.20;0.20;;;;;16.98;58.98;101125.91;4960170;28;46959;-54
2022/06/06 05:52:01;;;;;;;;;1.00;1.00;;;;;16.86;58.79;101095.44;4978861;28;45750;-53
2022/06/06 05:54:30;;;;;;;;;4.00;1.40;;;;;16.94;58.95;101133.88;4973408;28;45337;-53
2022/06/06 05:56:56;;;;;;;;;2.80;1.00;;;;;17.02;58.88;101127.13;4977288;28;45499;-50
2022/06/06 05:59:49;;;;;;;;;2.00;1.00;;;;;16.88;59.14;101132.09;4976139;28;45684;-52
2022/06/06 06:02:20;;;;;;;;;0.80;0.80;;;;;16.84;59.55;101135.56;4978709;28;45804;-56
2022/06/06 06:05:33;;;;;;;;;1.00;1.00;;;;;16.86;59.32;101145.34;4975893;28;45302;-54
2022/06/06 06:08:43;;;;;;;;;0.60;0.60;;;;;16.70;59.76;101146.09;4973561;28;45370;-55
2022/06/06 06:11:30;;;;;;;;;0.60;0.20;;;;;16.78;59.96;101148.50;4967538;28;45685;-54
2022/06/06 06:14:14;;;;;;;;;1.00;0.20;;;;;16.84;59.84;101147.53;4978293;28;45417;-51
2022/06/06 06:16:43;;;;;;;;;1.60;1.40;;;;;16.85;59.68;101137.28;4977130;28;45416;-54
2022/06/06 06:19:13;;;;;;;;;2.20;1.20;;;;;16.80;59.59;101132.44;4976714;28;45361;-53
2022/06/06 06:21:47;;;;;;;;;1.00;1.00;;;;;16.70;59.70;101110.06;4960996;28;45678;-54
2022/06/06 06:24:16;;;;;;;;;1.20;1.20;;;;;16.94;59.78;101149.66;4976757;28;45410;-54
2022/06/06 06:26:42;;;;;;;;;3.00;2.00;;;;;17.10;59.56;101147.22;4961150;28;45500;-54
2022/06/06 06:29:08;;;;;;;;;3.00;2.00;;;;;16.99;59.54;101102.66;4976643;28;45465;-55
2022/06/06 06:31:54;;;;;;;;;2.20;1.00;;;;;17.29;58.76;101148.72;4978176;28;45922;-51
2022/06/06 06:34:28;;;;;;;;;2.00;2.00;;;;;17.25;58.79;101155.03;4976370;28;45313;-54
2022/06/06 06:37:45;;;;;;;;;2.80;1.00;;;;;17.36;58.52;101164.38;4986085;28;45433;-53
2022/06/06 06:40:21;;;;;;;;;1.00;1.00;;;;;17.23;58.45;101160.00;4980326;28;45491;-52
2022/06/06 06:43:07;;;;;;;;;1.00;1.00;;;;;17.31;58.97;101165.13;4996284;28;45551;-51
2022/06/06 06:45:37;;;;;;;;;2.20;2.00;;;;;17.40;59.06;101146.16;5029439;28;45429;-53
2022/06/06 06:48:12;;;;;;;;;1.60;1.00;;;;;17.51;58.50;101145.28;5023722;28;45611;-55
2022/06/06 06:50:53;;;;;;;;;1.00;1.00;;;;;17.55;58.17;101157.53;5017174;28;46048;-52
2022/06/06 06:53:56;;;;;;;;;0.80;0.80;;;;;17.55;57.73;101165.88;5026427;28;46407;-52
2022/06/06 06:57:01;;;;;;;;;1.00;1.00;;;;;17.36;58.09;101158.84;4996888;28;45373;-52
2022/06/06 07:00:10;;;;;;;;;1.80;1.80;;;;;17.40;58.52;101160.88;4995436;28;45482;-57
2022/06/06 07:08:48;;;;;;;;;1.60;1.00;;;;;17.56;58.20;101162.00;4996951;28;45847;-55
2022/06/06 07:11:41;;;;;;;;;0.40;0.40;;;;;17.70;58.06;101164.47;5029191;28;45392;-50
2022/06/06 07:14:13;;;;;;;;;3.40;2.00;;;;;17.79;57.77;101167.69;5029248;28;45340;-50
2022/06/06 07:16:40;;;;;;;;;0.00;0.00;;;;;17.75;56.93;101157.09;4996551;28;45743;-53
2022/06/06 07:19:19;;;;;;;;;1.00;1.00;;;;;17.94;57.04;101167.97;4997034;28;45327;-54
2022/06/06 07:21:46;;;;;;;;;1.00;1.00;;;;;17.92;56.60;101155.44;5011253;28;45270;-55
2022/06/06 07:24:17;;;;;;;;;1.60;1.60;;;;;17.96;56.79;101163.00;4989149;28;45358;-55
2022/06/06 07:26:43;;;;;;;;;1.80;1.80;;;;;17.83;55.81;101127.22;4971733;28;45883;-50
2022/06/06 07:29:14;;;;;;;;;0.20;0.20;;;;;17.94;55.52;101131.00;4974648;28;45396;-50
2022/06/06 07:31:42;;;;;;;;;1.20;1.20;;;;;18.17;55.53;101157.81;4976949;28;45461;-52
2022/06/06 07:34:26;;;;;;;;;2.20;1.60;;;;;18.19;55.64;101155.59;4976850;28;45616;-49
2022/06/06 07:37:04;;;;;;;;;1.00;1.00;;;;;18.20;55.83;101157.28;4983588;28;45962;-53
2022/06/06 07:39:43;;;;;;;;;2.40;1.00;;;;;18.28;55.97;101154.09;4996433;28;45374;-50
2022/06/06 07:42:24;;;;;;;;;1.60;1.60;;;;;18.19;55.31;101113.13;4997153;28;45378;-52
2022/06/06 07:45:24;;;;;;;;;0.60;0.60;;;;;18.37;55.17;101154.47;5026774;28;45618;-52
2022/06/06 07:48:15;;;;;;;;;1.00;1.00;;;;;18.42;55.75;101151.78;4961237;28;46779;-54
2022/06/06 07:50:53;;;;;;;;;0.60;0.60;;;;;18.58;55.54;101159.53;5009252;28;45634;-55
2022/06/06 07:53:31;;;;;;;;;1.00;1.00;;;;;18.39;55.45;101098.66;5014915;28;45816;-53
2022/06/06 07:56:14;;;;;;;;;1.00;1.00;;;;;18.77;55.00;101138.66;5028760;28;45267;-51
2022/06/06 07:58:53;;;;;;;;;1.80;1.80;;;;;18.85;54.96;101150.44;5011244;28;46485;-51
2022/06/06 08:01:22;;;;;;;;;2.00;2.00;;;;;18.92;54.43;101140.81;4995348;28;45448;-54
2022/06/06 08:03:57;;;;;;;;;2.40;1.00;;;;;18.95;54.24;101142.22;5028185;28;45259;-51
2022/06/06 08:06:31;;;;;;;;;1.80;1.80;;;;;18.79;53.58;101133.69;4995764;28;45509;-53
2022/06/06 08:09:24;;;;;;;;;2.00;1.00;;;;;18.90;53.71;101142.97;4996215;28;45585;-53
2022/06/06 08:12:10;;;;;;;;;2.00;2.00;;;;;19.05;53.64;101145.16;4994973;28;45436;-52
2022/06/06 08:14:53;;;;;;;;;1.00;1.00;;;;;19.07;52.19;101137.41;4996735;28;45346;-56
2022/06/06 08:17:44;;;;;;;;;1.00;1.00;;;;;19.05;53.12;101139.59;5010415;28;45386;-50
2022/06/06 08:20:50;;;;;;;;;2.20;2.20;;;;;19.09;53.44;101143.53;4984479;28;46214;-55
2022/06/06 08:23:16;;;;;;;;;4.80;4.00;;;;;19.02;53.01;101120.66;4955718;28;45727;-55
2022/06/06 08:25:42;;;;;;;;;3.00;3.00;;;;;19.16;52.26;101134.97;4955341;28;45381;-52
2022/06/06 08:28:08;;;;;;;;;2.20;2.20;;;;;19.08;52.19;101133.53;4973902;28;46142;-56
2022/06/06 08:30:35;;;;;;;;;2.00;2.00;;;;;19.13;52.42;101140.22;4971126;28;45951;-53
2022/06/06 08:33:01;;;;;;;;;1.40;1.40;;;;;19.13;51.19;101126.31;4971775;28;45480;-57
2022/06/06 08:35:41;;;;;;;;;1.50;1.50;;;;;19.07;51.88;101125.44;4971044;28;45491;-53
2022/06/06 08:38:06;;;;;;;;;0.40;0.40;;;;;19.08;51.32;101138.22;4960245;28;46948;-61
2022/06/06 08:40:34;;;;;;;;;1.00;1.00;;;;;19.05;51.36;101131.25;4989839;28;46609;-52
2022/06/06 08:43:20;;;;;;;;;0.20;0.20;;;;;18.88;51.44;101095.13;4991232;28;45532;-53
2022/06/06 08:46:12;;;;;;;;;1.40;1.00;;;;;19.05;50.82;101128.47;4991856;28;45438;-55
2022/06/06 08:50:44;;;;;;;;;2.00;1.00;;;;;19.17;50.70;101122.78;4950935;28;45426;-54
2022/06/06 08:52:11;;;;;;;;;1.80;1.80;;;;;19.34;50.08;101124.63;4961762;28;45842;-52
2022/06/06 08:54:57;;;;;;;;;1.60;1.60;;;;;19.47;50.30;101118.63;4954560;28;45901;-58
2022/06/06 08:57:35;;;;;;;;;3.80;3.00;;;;;19.45;49.84;101114.44;4970759;28;45418;-52
2022/06/06 09:00:07;;;;;;;;;1.40;1.40;;;;;19.29;49.95;101089.22;4954063;28;45877;-57
2022/06/06 09:02:58;;;;;;;;;1.00;1.00;;;;;19.55;49.61;101130.38;4971597;28;46692;-53
2022/06/06 09:05:36;;;;;;;;;0.00;0.00;;;;;19.58;48.83;101125.13;4970419;28;45501;-52
2022/06/06 09:08:23;;;;;;;;;1.40;0.40;;;;;19.57;48.53;101126.25;4971855;28;45511;-54
2022/06/06 09:11:02;;;;;;;;;0.20;0.20;;;;;19.63;48.35;101127.13;4970504;28;45576;-53
2022/06/06 09:13:52;;;;;;;;;1.40;1.00;;;;;19.71;47.87;101126.66;4969845;28;46995;-52
2022/06/06 09:16:27;;;;;;;;;3.00;1.00;;;;;19.76;47.18;101129.47;4968838;28;45472;-53
2022/06/06 09:19:17;;;;;;;;;1.40;0.40;;;;;19.80;47.94;101135.34;4970755;28;45480;-53
2022/06/06 09:21:54;;;;;;;;;1.00;1.00;;;;;19.78;48.09;101130.06;4957979;28;45851;-54
2022/06/06 09:24:29;;;;;;;;;0.40;0.40;;;;;19.74;47.99;101128.06;4971306;28;46132;-55
2022/06/06 09:27:01;;;;;;;;;0.00;0.00;;;;;19.82;47.95;101133.16;4975205;28;45430;-52
2022/06/06 09:30:06;;;;;;;;;1.60;0.00;;;;;19.94;47.42;101127.41;4973486;28;45642;-50
2022/06/06 09:32:47;;;;;;;;;0.40;0.40;;;;;20.04;47.60;101121.09;4973421;28;45886;-53
2022/06/06 09:35:41;;;;;;;;;2.60;1.00;;;;;20.07;48.06;101122.50;4976613;28;45517;-52
2022/06/06 09:38:12;;;;;;;;;1.00;1.00;;;;;20.03;47.99;101116.63;4972963;28;45475;-51
2022/06/06 09:40:58;;;;;;;;;1.00;1.00;;;;;19.99;47.76;101121.06;4973460;28;45945;-51
2022/06/06 09:43:29;;;;;;;;;0.20;0.20;;;;;19.98;47.99;101119.38;4974425;28;45451;-53
2022/06/06 09:46:01;;;;;;;;;1.00;1.00;;;;;19.96;48.09;101107.66;4974940;28;46690;-56
2022/06/06 09:48:48;;;;;;;;;1.00;1.00;;;;;20.10;47.57;101114.47;4971028;28;45580;-58
2022/06/06 09:51:39;;;;;;;;;1.00;1.00;;;;;20.03;47.81;101103.53;4975172;28;45784;-58
2022/06/06 10:00:22;;;;;;;;;1.20;1.20;;;;;20.20;47.24;101118.41;4973360;28;45382;-54
2022/06/06 10:03:25;;;;;;;;;1.00;1.00;;;;;20.28;46.68;101113.19;4973198;28;45413;-56
2022/06/06 10:05:58;;;;;;;;;2.00;1.00;;;;;20.35;46.04;101110.19;4974877;28;45315;-58
2022/06/06 10:08:42;;;;;;;;;0.00;0.00;;;;;20.01;46.18;101074.28;4973101;28;46639;-54
2022/06/06 10:11:26;;;;;;;;;2.00;0.40;;;;;20.26;46.12;101106.19;4974245;28;45477;-57
2022/06/06 10:14:03;;;;;;;;;0.80;0.80;;;;;20.21;46.36;101120.94;4974396;28;45562;-51
2022/06/06 10:17:09;;;;;;;;;1.20;0.20;;;;;20.07;45.14;101105.78;4987782;28;45407;-53
2022/06/06 10:19:44;;;;;;;;;1.00;0.00;;;;;20.13;46.22;101111.13;4993792;28;46669;-55
2022/06/06 10:22:19;;;;;;;;;2.20;2.20;;;;;20.18;45.56;101113.94;4954846;28;45912;-58
2022/06/06 10:24:59;;;;;;;;;1.00;1.00;;;;;20.22;45.53;101117.03;4967324;28;45442;-55
2022/06/06 10:27:30;;;;;;;;;1.00;1.00;;;;;20.11;46.10;101115.31;4974509;28;45396;-53
2022/06/06 10:30:26;;;;;;;;;0.60;0.60;;;;;20.21;45.22;101120.13;4972919;28;45504;-56
2022/06/06 10:33:23;;;;;;;;;1.00;1.00;;;;;20.28;45.82;101123.50;4972782;28;45462;-59
2022/06/06 10:36:25;;;;;;;;;1.00;1.00;;;;;20.56;45.74;101129.81;4971563;28;45486;-56
2022/06/06 10:39:20;;;;;;;;;0.00;0.00;;;;;20.40;45.38;101121.38;4987605;28;45520;-57
2022/06/06 10:42:00;;;;;;;;;0.20;0.20;;;;;20.20;45.01;101091.41;5010410;28;45868;-53
2022/06/06 10:44:54;;;;;;;;;1.20;0.00;;;;;20.19;45.03;101086.94;5025121;28;46000;-54
2022/06/06 10:47:38;;;;;;;;;0.80;0.80;;;;;20.56;45.62;101127.00;4956070;28;45674;-59
2022/06/06 10:50:11;;;;;;;;;4.40;4.40;;;;;20.65;45.47;101113.41;4973490;28;45795;-58
2022/06/06 10:53:09;;;;;;;;;0.00;0.00;;;;;20.75;44.71;101098.66;4972169;28;46130;-53
2022/06/06 10:55:53;;;;;;;;;0.60;0.60;;;;;20.92;43.78;101096.50;4972538;28;45885;-54
2022/06/06 10:58:27;;;;;;;;;0.20;0.20;;;;;20.95;43.88;101081.19;4973633;28;45470;-52
2022/06/06 11:01:17;;;;;;;;;0.60;0.60;;;;;21.21;42.10;101110.03;4972469;28;45446;-54
2022/06/06 11:03:45;;;;;;;;;0.20;0.20;;;;;21.15;42.50;101108.31;4973019;28;45685;-55
2022/06/06 11:06:38;;;;;;;;;0.00;0.00;;;;;21.14;42.98;101092.69;4973429;28;45371;-54
2022/06/06 11:09:14;;;;;;;;;3.00;1.60;;;;;20.99;42.04;101080.34;4971701;28;45707;-51
2022/06/06 11:12:02;;;;;;;;;2.00;2.00;;;;;21.21;42.86;101092.41;4972416;28;45511;-53
2022/06/06 11:14:32;;;;;;;;;1.00;1.00;;;;;21.17;41.75;101108.88;4966594;28;45922;-54
2022/06/06 11:17:06;;;;;;;;;2.00;1.00;;;;;20.92;43.01;101068.63;4988203;28;45405;-50
2022/06/06 11:19:56;;;;;;;;;6.00;6.00;;;;;21.12;43.42;101094.91;4993056;28;45643;-53
2022/06/06 11:22:31;;;;;;;;;1.20;0.60;;;;;20.93;41.99;101070.31;5009133;28;45451;-54
2022/06/06 11:25:08;;;;;;;;;1.00;1.00;;;;;21.20;42.45;101102.75;4983566;28;46695;-53
2022/06/06 11:28:11;;;;;;;;;0.20;0.20;;;;;21.38;43.00;101103.34;4973340;28;45815;-52
2022/06/06 11:31:00;;;;;;;;;0.40;0.40;;;;;21.50;42.20;101101.13;4957442;28;45542;-50
2022/06/06 11:33:37;;;;;;;;;0.40;0.40;;;;;21.52;41.14;101098.06;4973347;28;45745;-52
2022/06/06 11:36:13;;;;;;;;;1.00;0.60;;;;;21.31;40.35;101053.38;4972308;28;46759;-50
2022/06/06 11:38:47;;;;;;;;;0.00;0.00;;;;;21.55;39.59;101077.94;4982034;28;45518;-54
2022/06/06 11:41:14;;;;;;;;;1.40;1.00;;;;;21.62;40.02;101091.66;4992297;28;45339;-56
2022/06/06 11:44:01;;;;;;;;;0.00;0.00;;;;;21.57;39.96;101088.84;4991091;28;46012;-50
2022/06/06 11:46:52;;;;;;;;;0.40;0.40;;;;;21.45;39.89;101092.72;5024416;28;46899;-56
2022/06/06 11:49:29;;;;;;;;;0.40;0.00;;;;;21.50;39.67;101094.72;4969230;28;45772;-54
2022/06/06 11:52:27;;;;;;;;;0.00;0.00;;;;;21.54;40.62;101104.19;4963877;28;45760;-58
2022/06/06 11:54:58;;;;;;;;;0.00;0.00;;;;;21.22;40.68;101036.34;4975819;28;45866;-53
2022/06/06 11:57:45;;;;;;;;;1.40;1.40;;;;;21.60;41.13;101096.69;5022969;28;46803;-60
2022/06/06 12:00:21;;;;;;;;;0.40;0.00;;;;;21.42;40.19;101068.19;4991781;28;45569;-60
2022/06/06 12:03:10;;;;;;;;;0.60;0.60;;;;;21.46;40.81;101090.78;4971286;28;45373;-58
2022/06/06 12:06:03;;;;;;;;;0.80;0.80;;;;;21.39;40.90;101066.78;4970340;28;45543;-54
2022/06/06 12:09:04;;;;;;;;;0.80;0.80;;;;;21.49;41.12;101081.84;5019972;28;46923;-57
2022/06/06 12:11:41;;;;;;;;;0.00;0.00;;;;;21.58;41.08;101088.56;4988618;28;45789;-56
2022/06/06 12:14:40;;;;;;;;;0.80;0.80;;;;;21.67;40.95;101081.31;4978489;28;45589;-53
2022/06/06 12:17:24;;;;;;;;;0.20;0.00;;;;;21.88;40.70;101088.88;4971608;28;45495;-48
2022/06/06 12:19:55;;;;;;;;;0.60;0.00;;;;;21.79;40.32;101039.16;4970510;28;47669;-61
2022/06/06 12:22:40;;;;;;;;;0.00;0.00;;;;;22.00;40.72;101080.22;4940170;28;45397;-53
2022/06/06 12:25:05;;;;;;;;;0.00;0.00;;;;;21.98;40.39;101082.44;4952934;28;46230;-58
2022/06/06 12:27:42;;;;;;;;;1.00;1.00;;;;;22.01;39.92;101077.13;4971689;28;45332;-54
2022/06/06 12:30:15;;;;;;;;;1.00;1.00;;;;;22.12;39.52;101077.09;4971257;28;45960;-56
2022/06/06 12:33:09;;;;;;;;;5.60;5.40;;;;;22.10;40.14;101073.75;4953325;28;45459;-55